www.cux-wetter.de
Wetterdaten: Samstag, 12.05.2007
Datum Zeit Temp. A. Feuchte A. Luftdruck Regen Wind Richtung Richtung Sonnenschein Solar Taupunkt Windchill Windben
12.05.2007 00:00 10,2 C 75 % 1005,5 hPa 0,0 l/m 7,3 km/h (2 Bft) W 260 0 min 0 W/m 6,0 C 9,6 C 7,3 km/h (2 Bft)
12.05.2007 00:15 10,1 C 75 % 1005,5 hPa 0,0 l/m 7,9 km/h (2 Bft) W 275 0 min 0 W/m 5,9 C 9,0 C 7,9 km/h (2 Bft)
12.05.2007 00:30 10,0 C 77 % 1005,5 hPa 0,0 l/m 4,7 km/h (1 Bft) W 260 0 min 0 W/m 6,2 C 10,0 C 4,7 km/h (1 Bft)
12.05.2007 00:45 9,8 C 78 % 1005,5 hPa 0,0 l/m 3,7 km/h (1 Bft) W 260 0 min 0 W/m 6,1 C 9,8 C 3,7 km/h (1 Bft)
12.05.2007 01:00 9,7 C 79 % 1004,5 hPa 0,0 l/m 0,0 km/h (0 Bft) W 260 0 min 0 W/m 6,2 C 9,7 C 0,0 km/h (0 Bft)
12.05.2007 01:15 9,5 C 80 % 1004,5 hPa 0,0 l/m 0,0 km/h (0 Bft) W 260 0 min 0 W/m 6,2 C 9,5 C 0,0 km/h (0 Bft)
12.05.2007 01:30 9,5 C 81 % 1004,5 hPa 0,0 l/m 4,3 km/h (1 Bft) SW 225 0 min 0 W/m 6,4 C 9,5 C 4,3 km/h (1 Bft)
12.05.2007 01:45 9,4 C 82 % 1004,5 hPa 0,0 l/m 5,6 km/h (2 Bft) S 180 0 min 0 W/m 6,5 C 9,4 C 5,6 km/h (2 Bft)
12.05.2007 02:00 9,4 C 83 % 1004,5 hPa 0,0 l/m 6,2 km/h (2 Bft) S 170 0 min 0 W/m 6,7 C 9,4 C 6,2 km/h (2 Bft)
12.05.2007 02:15 9,2 C 84 % 1003,5 hPa 0,0 l/m 8,2 km/h (2 Bft) S-SO 165 0 min 0 W/m 6,6 C 7,9 C 8,2 km/h (2 Bft)
12.05.2007 02:30 8,8 C 85 % 1003,5 hPa 0,0 l/m 7,4 km/h (2 Bft) S-SO 160 0 min 0 W/m 6,4 C 8,0 C 7,4 km/h (2 Bft)
12.05.2007 02:45 8,4 C 86 % 1003,5 hPa 0,0 l/m 7,7 km/h (2 Bft) S 175 0 min 0 W/m 6,2 C 7,4 C 7,7 km/h (2 Bft)
12.05.2007 03:00 8,6 C 88 % 1003,5 hPa 0,0 l/m 7,8 km/h (2 Bft) S 170 0 min 0 W/m 6,7 C 7,5 C 7,8 km/h (2 Bft)
12.05.2007 03:15 8,7 C 89 % 1003,5 hPa 0,0 l/m 8,7 km/h (2 Bft) S 185 0 min 0 W/m 7,0 C 7,0 C 8,7 km/h (2 Bft)
12.05.2007 03:30 8,7 C 89 % 1003,5 hPa 0,0 l/m 11,1 km/h (2 Bft) S 175 0 min 0 W/m 7,0 C 5,5 C 11,1 km/h (2 Bft)
12.05.2007 03:45 8,4 C 89 % 1002,5 hPa 0,0 l/m 7,1 km/h (2 Bft) S-SO 165 0 min 0 W/m 6,7 C 7,9 C 7,1 km/h (2 Bft)
12.05.2007 04:00 8,2 C 89 % 1002,5 hPa 0,0 l/m 4,8 km/h (1 Bft) S 180 0 min 0 W/m 6,5 C 8,2 C 4,8 km/h (1 Bft)
12.05.2007 04:15 8,0 C 89 % 1002,5 hPa 0,0 l/m 6,9 km/h (2 Bft) S-SO 165 0 min 0 W/m 6,3 C 7,6 C 6,9 km/h (2 Bft)
12.05.2007 04:30 7,8 C 90 % 1002,5 hPa 0,0 l/m 7,0 km/h (2 Bft) S-SO 160 0 min 0 W/m 6,3 C 7,3 C 7,0 km/h (2 Bft)
12.05.2007 04:45 7,6 C 91 % 1002,5 hPa 0,0 l/m 9,5 km/h (2 Bft) S-SO 165 0 min 0 W/m 6,2 C 5,3 C 9,5 km/h (2 Bft)
12.05.2007 05:00 7,6 C 91 % 1002,5 hPa 0,0 l/m 8,1 km/h (2 Bft) S 190 0 min 0 W/m 6,2 C 6,3 C 8,1 km/h (2 Bft)
12.05.2007 05:15 7,6 C 92 % 1002,5 hPa 0,0 l/m 14,8 km/h (3 Bft) S-SW 200 0 min 0 W/m 6,4 C 2,3 C 14,8 km/h (3 Bft)
12.05.2007 05:30 7,5 C 92 % 1002,5 hPa 0,0 l/m 8,4 km/h (2 Bft) S 175 0 min 0 W/m 6,3 C 5,9 C 8,4 km/h (2 Bft)
12.05.2007 05:45 7,8 C 93 % 1001,5 hPa 0,0 l/m 8,7 km/h (2 Bft) S 170 0 min 0 W/m 6,7 C 6,0 C 8,7 km/h (2 Bft)
12.05.2007 06:00 7,8 C 93 % 1001,5 hPa 0,0 l/m 9,6 km/h (2 Bft) S-SO 165 0 min 0 W/m 6,7 C 5,4 C 9,6 km/h (2 Bft)
12.05.2007 06:15 8,2 C 94 % 1001,5 hPa 0,0 l/m 12,0 km/h (2 Bft) S 170 0 min 0 W/m 7,3 C 4,4 C 12,0 km/h (2 Bft)
12.05.2007 06:30 8,4 C 94 % 1001,5 hPa 0,0 l/m 13,1 km/h (3 Bft) S 170 0 min 0 W/m 7,5 C 4,1 C 13,1 km/h (3 Bft)
12.05.2007 06:45 8,6 C 94 % 1001,5 hPa 0,0 l/m 12,0 km/h (2 Bft) S 180 0 min 0 W/m 7,7 C 4,9 C 12,0 km/h (2 Bft)
12.05.2007 07:00 9,0 C 95 % 1001,5 hPa 0,0 l/m 11,0 km/h (2 Bft) S 175 0 min 0 W/m 8,2 C 5,9 C 11,0 km/h (2 Bft)
12.05.2007 07:15 9,3 C 94 % 1001,5 hPa 0,0 l/m 9,9 km/h (2 Bft) S 180 0 min 0 W/m 8,4 C 6,9 C 9,9 km/h (2 Bft)
12.05.2007 07:30 9,5 C 94 % 1001,5 hPa 0,0 l/m 10,5 km/h (2 Bft) S 180 0 min 0 W/m 8,6 C 6,8 C 10,5 km/h (2 Bft)
12.05.2007 07:45 9,5 C 94 % 1001,5 hPa 0,0 l/m 11,3 km/h (2 Bft) S-SO 165 0 min 0 W/m 8,6 C 6,3 C 11,3 km/h (2 Bft)
12.05.2007 08:00 9,6 C 94 % 1001,5 hPa 0,3 l/m 12,5 km/h (2 Bft) S-SW 195 0 min 0 W/m 8,7 C 5,8 C 12,5 km/h (2 Bft)
12.05.2007 08:15 10,0 C 94 % 1001,5 hPa 0,3 l/m 11,0 km/h (2 Bft) S 190 0 min 0 W/m 9,1 C 7,0 C 11,0 km/h (2 Bft)
12.05.2007 08:30 10,2 C 94 % 1001,5 hPa 0,0 l/m 11,2 km/h (2 Bft) S 175 0 min 0 W/m 9,3 C 7,2 C 11,2 km/h (2 Bft)
12.05.2007 08:45 10,2 C 94 % 1001,5 hPa 0,0 l/m 8,8 km/h (2 Bft) S 185 0 min 0 W/m 9,3 C 8,5 C 8,8 km/h (2 Bft)
12.05.2007 09:00 10,4 C 94 % 1001,5 hPa 0,0 l/m 9,6 km/h (2 Bft) S 180 0 min 0 W/m 9,5 C 8,3 C 9,6 km/h (2 Bft)
12.05.2007 09:15 10,9 C 94 % 1001,5 hPa 0,0 l/m 9,0 km/h (2 Bft) S-SO 155 0 min 0 W/m 10,0 C 9,2 C 9,0 km/h (2 Bft)
12.05.2007 09:29 11,4 C 92 % 1001,5 hPa 0,3 l/m 9,8 km/h (2 Bft) S 190 0 min 0 W/m 10,1 C 9,3 C 9,8 km/h (2 Bft)
12.05.2007 09:45 11,2 C 91 % 1001,5 hPa 0,0 l/m 10,1 km/h (2 Bft) S 175 0 min 0 W/m 9,8 C 8,9 C 10,1 km/h (2 Bft)
12.05.2007 10:00 11,0 C 92 % 1001,5 hPa 0,3 l/m 14,3 km/h (3 Bft) S 175 0 min 0 W/m 9,8 C 6,6 C 14,3 km/h (3 Bft)
12.05.2007 10:15 11,2 C 93 % 1001,5 hPa 0,0 l/m 13,9 km/h (3 Bft) S-SW 195 0 min 0 W/m 10,1 C 7,0 C 13,9 km/h (3 Bft)
12.05.2007 10:30 12,5 C 93 % 1001,5 hPa 0,0 l/m 14,3 km/h (3 Bft) S-SW 210 0 min 0 W/m 11,4 C 8,4 C 14,3 km/h (3 Bft)
12.05.2007 10:45 12,5 C 91 % 1001,5 hPa 0,0 l/m 17,1 km/h (3 Bft) S-SW 200 0 min 0 W/m 11,1 C 7,4 C 17,1 km/h (3 Bft)
12.05.2007 11:00 12,5 C 91 % 1001,5 hPa 0,0 l/m 22,7 km/h (4 Bft) SW 220 0 min 0 W/m 11,1 C 5,8 C 22,7 km/h (4 Bft)
12.05.2007 11:11 13,2 C 85 % 1001,5 hPa 0,0 l/m 28,1 km/h (5 Bft) W-SW 245 0 min 0 W/m 10,7 C 5,5 C 28,1 km/h (5 Bft)
12.05.2007 11:26 14,0 C 83 % 1001,5 hPa 0,0 l/m 19,4 km/h (3 Bft) W-SW 245 0 min 0 W/m 11,2 C 8,6 C 19,4 km/h (3 Bft)
12.05.2007 11:41 13,6 C 83 % 1001,5 hPa 0,0 l/m 19,4 km/h (3 Bft) W-SW 245 0 min 0 W/m 10,8 C 8,1 C 19,4 km/h (3 Bft)
12.05.2007 11:55 14,6 C 80 % 1001,5 hPa 0,0 l/m 19,4 km/h (3 Bft) W-SW 245 0 min 0 W/m 11,2 C 9,4 C 19,4 km/h (3 Bft)
12.05.2007 12:11 15,0 C 79 % 1001,5 hPa 0,0 l/m 19,4 km/h (3 Bft) W-SW 245 0 min 0 W/m 11,4 C 9,9 C 19,4 km/h (3 Bft)
12.05.2007 12:26 15,0 C 77 % 1001,5 hPa 0,0 l/m 19,4 km/h (3 Bft) W-SW 245 0 min 0 W/m 11,0 C 9,9 C 19,4 km/h (3 Bft)
12.05.2007 12:41 15,1 C 76 % 1001,5 hPa 0,0 l/m 19,4 km/h (3 Bft) W-SW 245 0 min 0 W/m 10,9 C 10,0 C 19,4 km/h (3 Bft)
12.05.2007 12:55 15,0 C 75 % 1001,5 hPa 0,0 l/m 29,1 km/h (5 Bft) W-SW 255 0 min 0 W/m 10,6 C 7,8 C 29,1 km/h (5 Bft)
12.05.2007 13:11 14,0 C 76 % 1001,5 hPa 0,0 l/m 30,0 km/h (5 Bft) W 260 0 min 0 W/m 9,8 C 6,3 C 30,0 km/h (5 Bft)
12.05.2007 13:26 13,7 C 80 % 1001,5 hPa 0,3 l/m 24,3 km/h (4 Bft) W 265 0 min 0 W/m 10,3 C 7,0 C 24,3 km/h (4 Bft)
12.05.2007 13:41 14,1 C 77 % 1001,5 hPa 0,0 l/m 36,2 km/h (5 Bft) W 260 0 min 0 W/m 10,1 C 5,5 C 36,2 km/h (5 Bft)
12.05.2007 13:56 14,2 C 74 % 1001,5 hPa 0,0 l/m 32,9 km/h (5 Bft) W 265 0 min 0 W/m 9,6 C 6,1 C 32,9 km/h (5 Bft)
12.05.2007 14:11 14,3 C 76 % 1001,5 hPa 0,0 l/m 28,1 km/h (5 Bft) W-SW 255 0 min 0 W/m 10,1 C 7,0 C 28,1 km/h (5 Bft)
12.05.2007 14:26 14,8 C 76 % 1001,5 hPa 0,0 l/m 28,9 km/h (5 Bft) W 260 0 min 0 W/m 10,6 C 7,6 C 28,9 km/h (5 Bft)
12.05.2007 14:41 15,0 C 75 % 1001,5 hPa 0,0 l/m 27,8 km/h (5 Bft) W 260 0 min 0 W/m 10,6 C 8,1 C 27,8 km/h (5 Bft)
12.05.2007 14:56 14,6 C 78 % 1001,5 hPa 0,0 l/m 27,0 km/h (5 Bft) W 265 0 min 0 W/m 10,8 C 7,7 C 27,0 km/h (5 Bft)
12.05.2007 15:11 15,1 C 74 % 1001,5 hPa 0,0 l/m 24,6 km/h (4 Bft) W 265 0 min 0 W/m 10,5 C 8,8 C 24,6 km/h (4 Bft)
12.05.2007 15:26 15,6 C 72 % 1001,5 hPa 0,0 l/m 33,2 km/h (5 Bft) W 275 0 min 0 W/m 10,6 C 8,0 C 33,2 km/h (5 Bft)
12.05.2007 15:41 15,0 C 74 % 1001,5 hPa 0,3 l/m 28,9 km/h (5 Bft) W 260 0 min 0 W/m 10,4 C 7,9 C 28,9 km/h (5 Bft)
12.05.2007 15:56 12,1 C 82 % 1001,5 hPa 0,3 l/m 41,6 km/h (6 Bft) W-NW 295 0 min 0 W/m 9,1 C 1,8 C 41,6 km/h (6 Bft)
12.05.2007 16:11 13,0 C 81 % 1001,5 hPa 0,0 l/m 19,7 km/h (3 Bft) NW 310 0 min 0 W/m 9,8 C 7,2 C 19,7 km/h (3 Bft)
12.05.2007 16:26 12,7 C 86 % 1002,5 hPa 0,6 l/m 28,1 km/h (5 Bft) NW 305 0 min 0 W/m 10,4 C 4,8 C 28,1 km/h (5 Bft)
12.05.2007 16:41 12,4 C 87 % 1002,5 hPa 0,6 l/m 24,8 km/h (4 Bft) NW 310 0 min 0 W/m 10,3 C 5,1 C 24,8 km/h (4 Bft)
12.05.2007 16:56 12,8 C 87 % 1002,5 hPa 0,0 l/m 23,0 km/h (4 Bft) NW 305 0 min 0 W/m 10,7 C 6,1 C 23,0 km/h (4 Bft)
12.05.2007 17:11 12,7 C 88 % 1002,5 hPa 0,0 l/m 26,6 km/h (4 Bft) W-NW 285 0 min 0 W/m 10,8 C 5,1 C 26,6 km/h (4 Bft)
12.05.2007 17:26 13,4 C 86 % 1002,5 hPa 0,0 l/m 27,8 km/h (5 Bft) NW 305 0 min 0 W/m 11,1 C 5,9 C 27,8 km/h (5 Bft)
12.05.2007 17:41 13,7 C 83 % 1002,5 hPa 0,0 l/m 32,4 km/h (5 Bft) W-NW 300 0 min 0 W/m 10,9 C 5,5 C 32,4 km/h (5 Bft)
12.05.2007 17:56 13,9 C 81 % 1002,5 hPa 0,0 l/m 29,5 km/h (5 Bft) NW 310 0 min 0 W/m 10,7 C 6,2 C 29,5 km/h (5 Bft)
12.05.2007 18:11 14,2 C 80 % 1003,5 hPa 0,0 l/m 27,3 km/h (5 Bft) NW 310 0 min 0 W/m 10,8 C 7,1 C 27,3 km/h (5 Bft)
12.05.2007 18:26 14,1 C 80 % 1003,5 hPa 0,0 l/m 34,4 km/h (5 Bft) NW 310 0 min 0 W/m 10,7 C 5,7 C 34,4 km/h (5 Bft)
12.05.2007 18:41 13,8 C 81 % 1003,5 hPa 0,0 l/m 33,5 km/h (5 Bft) W-NW 300 0 min 0 W/m 10,6 C 5,4 C 33,5 km/h (5 Bft)
12.05.2007 18:56 13,8 C 82 % 1003,5 hPa 0,0 l/m 34,1 km/h (5 Bft) W-NW 295 0 min 0 W/m 10,8 C 5,3 C 34,1 km/h (5 Bft)
12.05.2007 19:11 13,9 C 82 % 1003,5 hPa 0,0 l/m 29,1 km/h (5 Bft) W-NW 285 0 min 0 W/m 10,9 C 6,3 C 29,1 km/h (5 Bft)
12.05.2007 19:26 13,9 C 80 % 1003,5 hPa 0,0 l/m 25,3 km/h (4 Bft) W-NW 285 0 min 0 W/m 10,5 C 7,1 C 25,3 km/h (4 Bft)
12.05.2007 19:41 13,7 C 81 % 1003,5 hPa 0,0 l/m 27,7 km/h (5 Bft) NW 305 0 min 0 W/m 10,5 C 6,3 C 27,7 km/h (5 Bft)
12.05.2007 19:56 13,6 C 81 % 1003,5 hPa 0,0 l/m 23,3 km/h (4 Bft) NW 310 0 min 0 W/m 10,4 C 7,1 C 23,3 km/h (4 Bft)
12.05.2007 20:11 13,4 C 82 % 1003,5 hPa 0,0 l/m 23,0 km/h (4 Bft) NW 305 0 min 0 W/m 10,4 C 6,9 C 23,0 km/h (4 Bft)
12.05.2007 20:26 13,2 C 84 % 1004,5 hPa 0,0 l/m 18,8 km/h (3 Bft) NW 305 0 min 0 W/m 10,6 C 7,8 C 18,8 km/h (3 Bft)
12.05.2007 20:41 13,2 C 85 % 1004,5 hPa 0,0 l/m 17,0 km/h (3 Bft) W-NW 285 0 min 0 W/m 10,7 C 8,3 C 17,0 km/h (3 Bft)
12.05.2007 20:56 13,2 C 87 % 1004,5 hPa 0,0 l/m 17,4 km/h (3 Bft) W 280 0 min 0 W/m 11,1 C 8,2 C 17,4 km/h (3 Bft)
12.05.2007 21:11 13,5 C 85 % 1004,5 hPa 0,0 l/m 18,1 km/h (3 Bft) W-NW 285 0 min 0 W/m 11,0 C 8,4 C 18,1 km/h (3 Bft)
12.05.2007 21:26 13,5 C 84 % 1004,5 hPa 0,0 l/m 21,1 km/h (4 Bft) W 270 0 min 0 W/m 10,8 C 7,5 C 21,1 km/h (4 Bft)
12.05.2007 21:41 13,4 C 86 % 1004,5 hPa 0,0 l/m 16,4 km/h (3 Bft) W-SW 255 0 min 0 W/m 11,1 C 8,8 C 16,4 km/h (3 Bft)
12.05.2007 21:56 13,2 C 87 % 1004,5 hPa 0,0 l/m 18,1 km/h (3 Bft) W-SW 240 0 min 0 W/m 11,1 C 8,0 C 18,1 km/h (3 Bft)
12.05.2007 22:12 13,0 C 81 % 1005,5 hPa 0,0 l/m 22,4 km/h (4 Bft) W-SW 255 0 min 0 W/m 9,8 C 6,5 C 22,4 km/h (4 Bft)
12.05.2007 22:27 12,9 C 83 % 1005,5 hPa 0,0 l/m 22,6 km/h (4 Bft) W-SW 255 0 min 0 W/m 10,1 C 6,3 C 22,6 km/h (4 Bft)
12.05.2007 22:42 12,9 C 86 % 1005,5 hPa 0,0 l/m 22,1 km/h (4 Bft) W-SW 255 0 min 0 W/m 10,6 C 6,5 C 22,1 km/h (4 Bft)
12.05.2007 22:57 13,0 C 86 % 1005,5 hPa 0,0 l/m 22,3 km/h (4 Bft) W-SW 255 0 min 0 W/m 10,7 C 6,5 C 22,3 km/h (4 Bft)
12.05.2007 23:12 13,1 C 86 % 1005,5 hPa 0,0 l/m 18,8 km/h (3 Bft) W 265 0 min 0 W/m 10,8 C 7,6 C 18,8 km/h (3 Bft)
12.05.2007 23:27 13,2 C 86 % 1005,5 hPa 0,0 l/m 22,5 km/h (4 Bft) W-SW 255 0 min 0 W/m 10,9 C 6,8 C 22,5 km/h (4 Bft)
12.05.2007 23:42 13,3 C 85 % 1005,5 hPa 0,0 l/m 25,3 km/h (4 Bft) W 260 0 min 0 W/m 10,8 C 6,2 C 25,3 km/h (4 Bft)
12.05.2007 23:57 13,3 C 84 % 1005,5 hPa 0,0 l/m 33,4 km/h (5 Bft) W-SW 255 0 min 0 W/m 10,7 C 4,7 C 33,4 km/h (5 Bft)
_ Min-Zeit 05:30 15:26 05:45 - 01:00 - - - - 00:15 15:56 01:00
Minimum _ 7,5 C 72 % 1001,5 hPa - 0,0 km/h (0 Bft) - - - - 5,9 C 1,8 C 0,0 km/h (0 Bft)
_ Max-Zeit 15:26 07:00 00:00 16:26 15:56 - - 00:00 00:00 10:30 12:41 15:56
Maximum _ 15,6 C 95 % 1005,5 hPa 0,6 l/m 41,6 km/h
W-NW (6 Bft)
- - 0 min 0 W/m 11,4 C 10,0 C 41,6 km/h
W-NW (6 Bft)
Durchschnitt _ 11,8 C 85 % 1002,8 hPa #3,3 l/m 18,0 km/h (3 Bft) S - #0 min. 0 W/m 9,3 C 7,1 C 18,0 km/h (3 Bft)
copyright by Holger Just